Time;durP1;ratioP1;P1;durP2;ratioP2;P2;SDS_P1;SDS_P2;PMS_P1;PMS_P2;Temp;Humidity;BMP_temperature;BMP_pressure;BME280_temperature;BME280_humidity;BME280_pressure;Samples;Min_cycle;Max_cycle;Signal;HPM_P1;HPM_P2
2024/01/27 00:00:55;;;;;;;1.30;0.90;;;21.20;53.80;;;;;;5091735;28;20197;-70
2024/01/27 00:03:21;;;;;;;1.23;1.10;;;21.20;53.80;;;;;;5091723;28;20181;-71
2024/01/27 00:05:46;;;;;;;1.63;1.00;;;21.20;53.80;;;;;;5091636;28;20260;-70
2024/01/27 00:08:12;;;;;;;1.80;1.10;;;21.20;53.80;;;;;;5073563;28;20182;-70
2024/01/27 00:10:38;;;;;;;1.60;1.10;;;21.20;53.90;;;;;;5091398;28;20430;-70
2024/01/27 00:13:03;;;;;;;1.17;1.00;;;21.20;53.80;;;;;;5091397;28;20212;-71
2024/01/27 00:15:29;;;;;;;1.63;1.10;;;21.20;53.80;;;;;;5091470;28;20196;-69
2024/01/27 00:17:54;;;;;;;1.60;1.20;;;21.20;53.80;;;;;;5091384;28;20193;-71
2024/01/27 00:20:20;;;;;;;1.23;0.83;;;21.20;53.90;;;;;;5091287;28;20717;-71
2024/01/27 00:22:45;;;;;;;1.83;0.97;;;21.20;53.80;;;;;;5091313;28;20177;-71
2024/01/27 00:25:11;;;;;;;1.20;1.00;;;21.20;53.90;;;;;;5073233;28;20188;-71
2024/01/27 00:27:37;;;;;;;1.20;0.90;;;21.20;53.80;;;;;;5091259;28;20231;-71
2024/01/27 00:30:03;;;;;;;1.17;1.07;;;21.20;53.80;;;;;;5091114;28;20205;-70
2024/01/27 00:32:28;;;;;;;1.40;1.00;;;21.20;53.90;;;;;;5091114;28;20252;-70
2024/01/27 00:34:54;;;;;;;1.40;1.03;;;21.10;53.70;;;;;;5091137;28;20256;-70
2024/01/27 00:37:19;;;;;;;1.10;0.80;;;21.10;53.80;;;;;;5091019;28;20184;-71
2024/01/27 00:39:45;;;;;;;1.20;0.97;;;21.20;53.90;;;;;;5090931;28;20910;-71
2024/01/27 00:42:11;;;;;;;1.07;0.80;;;21.10;53.80;;;;;;5091253;28;20269;-70
2024/01/27 00:44:36;;;;;;;1.60;1.10;;;21.10;53.80;;;;;;5090965;28;20174;-70
2024/01/27 00:47:03;;;;;;;1.20;0.90;;;21.10;53.80;;;;;;5090895;28;20181;-71
2024/01/27 00:49:28;;;;;;;1.30;1.03;;;21.10;53.80;;;;;;5090838;28;20220;-70
2024/01/27 00:51:54;;;;;;;1.20;0.90;;;21.10;53.80;;;;;;5090777;28;20443;-71
2024/01/27 00:54:20;;;;;;;1.70;1.30;;;21.10;53.80;;;;;;5090687;28;20208;-70
2024/01/27 00:56:45;;;;;;;1.70;1.30;;;21.10;53.80;;;;;;5072520;28;20566;-71
2024/01/27 00:59:11;;;;;;;1.50;0.90;;;21.10;53.80;;;;;;5090537;28;20177;-71
2024/01/27 01:01:36;;;;;;;2.77;1.10;;;21.10;53.80;;;;;;5090548;28;20201;-70
2024/01/27 01:04:02;;;;;;;1.30;1.10;;;21.10;53.80;;;;;;5090509;28;20182;-71
2024/01/27 01:06:28;;;;;;;1.00;0.80;;;21.10;53.80;;;;;;5090555;28;20260;-71
2024/01/27 01:08:53;;;;;;;1.73;1.43;;;21.10;53.80;;;;;;5090554;28;20252;-71
2024/01/27 01:11:19;;;;;;;1.73;0.90;;;21.10;53.80;;;;;;5090330;28;20243;-69
2024/01/27 01:13:45;;;;;;;1.90;1.10;;;21.10;53.80;;;;;;5090329;28;20208;-70
2024/01/27 01:16:10;;;;;;;1.20;1.00;;;21.10;53.80;;;;;;5090230;28;20190;-70
2024/01/27 01:18:36;;;;;;;1.30;1.00;;;21.10;53.90;;;;;;5089749;28;20193;-71
2024/01/27 01:21:01;;;;;;;1.30;1.13;;;21.10;53.90;;;;;;5072011;28;20193;-68
2024/01/27 01:23:27;;;;;;;1.23;1.03;;;21.10;53.90;;;;;;5090241;28;20177;-70
2024/01/27 01:25:53;;;;;;;1.27;1.13;;;21.10;53.90;;;;;;5090336;28;20668;-68
2024/01/27 01:28:18;;;;;;;1.13;1.03;;;21.10;53.90;;;;;;5090124;28;20177;-70
2024/01/27 01:30:44;;;;;;;1.00;0.90;;;21.10;54.00;;;;;;5090032;28;20648;-69
2024/01/27 01:33:11;;;;;;;1.00;0.80;;;21.10;53.90;;;;;;5090111;28;20201;-71
2024/01/27 01:35:37;;;;;;;1.27;0.97;;;21.10;53.90;;;;;;5090162;28;20253;-71
2024/01/27 01:38:03;;;;;;;1.97;1.10;;;21.00;53.80;;;;;;5090095;28;20400;-71
2024/01/27 01:40:29;;;;;;;1.87;1.10;;;21.00;53.80;;;;;;5089999;28;20481;-70
2024/01/27 01:42:54;;;;;;;1.60;0.93;;;21.00;54.40;;;;;;5090128;28;20988;-70
2024/01/27 01:45:20;;;;;;;1.30;1.20;;;21.00;53.80;;;;;;5090074;28;20173;-70
2024/01/27 01:47:46;;;;;;;1.10;0.90;;;21.00;53.80;;;;;;5089908;28;20193;-71
2024/01/27 01:50:12;;;;;;;1.30;0.97;;;21.00;53.80;;;;;;5089927;28;20202;-70
2024/01/27 01:52:38;;;;;;;1.63;0.90;;;21.00;53.80;;;;;;5089946;28;20455;-70
2024/01/27 01:55:05;;;;;;;1.30;1.00;;;21.00;53.80;;;;;;5089964;28;20655;-69
2024/01/27 01:57:31;;;;;;;1.60;1.00;;;21.00;53.80;;;;;;5089835;28;20894;-71
2024/01/27 01:59:56;;;;;;;1.97;1.10;;;21.10;53.90;;;;;;5071605;28;20442;-71
2024/01/27 02:02:22;;;;;;;1.40;1.00;;;21.00;53.80;;;;;;5071909;28;20427;-70
2024/01/27 02:04:48;;;;;;;1.03;0.90;;;21.00;53.80;;;;;;5089785;28;20260;-70
2024/01/27 02:07:14;;;;;;;2.00;1.00;;;21.00;53.80;;;;;;5089825;28;20193;-71
2024/01/27 02:09:40;;;;;;;1.73;1.03;;;21.00;53.80;;;;;;5089901;28;20193;-71
2024/01/27 02:12:06;;;;;;;1.73;1.00;;;21.00;53.80;;;;;;5089757;28;20786;-71
2024/01/27 02:14:32;;;;;;;1.60;1.00;;;21.00;53.80;;;;;;5089879;28;20541;-71
2024/01/27 02:16:58;;;;;;;1.37;1.10;;;21.10;53.80;;;;;;5089608;28;20443;-71
2024/01/27 02:19:24;;;;;;;1.60;1.00;;;21.00;53.80;;;;;;5089595;28;20174;-70
2024/01/27 02:21:50;;;;;;;1.40;1.00;;;21.00;53.80;;;;;;5089628;28;20658;-68
2024/01/27 02:24:15;;;;;;;1.30;0.90;;;21.00;53.80;;;;;;5089627;28;20450;-70
2024/01/27 02:26:41;;;;;;;1.87;1.30;;;21.00;53.80;;;;;;5089639;28;20416;-69
2024/01/27 02:29:07;;;;;;;1.10;0.90;;;21.00;53.80;;;;;;5089538;28;20185;-70
2024/01/27 02:31:32;;;;;;;1.83;0.87;;;21.00;53.80;;;;;;5092120;28;20193;-69
2024/01/27 02:33:58;;;;;;;1.03;0.83;;;21.00;53.80;;;;;;5093169;28;20286;-71
2024/01/27 02:36:23;;;;;;;1.00;0.80;;;21.00;53.80;;;;;;5093218;28;20178;-67
2024/01/27 02:38:49;;;;;;;1.47;1.00;;;21.00;53.80;;;;;;5074920;28;20182;-70
2024/01/27 02:41:15;;;;;;;1.00;0.90;;;21.00;53.80;;;;;;5093104;28;20531;-70
2024/01/27 02:43:40;;;;;;;1.40;0.93;;;21.00;53.80;;;;;;5093363;28;20217;-70
2024/01/27 02:46:10;;;;;;;1.60;0.93;;;21.00;53.80;;;;;;5093352;28;20203;-70
2024/01/27 02:48:35;;;;;;;1.43;1.00;;;21.00;53.80;;;;;;5093316;28;20185;-70
2024/01/27 02:51:04;;;;;;;1.47;1.10;;;21.00;53.90;;;;;;5092919;28;20809;-70
2024/01/27 02:53:30;;;;;;;1.70;1.00;;;21.00;53.80;;;;;;5093154;28;20570;-69
2024/01/27 02:55:56;;;;;;;2.00;1.10;;;21.00;53.80;;;;;;5092867;28;20407;-70
2024/01/27 02:58:22;;;;;;;1.20;0.87;;;21.00;53.80;;;;;;5092790;28;20178;-68
2024/01/27 03:00:47;;;;;;;1.20;0.83;;;21.00;53.80;;;;;;5092601;28;20206;-71
2024/01/27 03:03:13;;;;;;;1.20;0.97;;;21.00;53.90;;;;;;5092737;28;20418;-68
2024/01/27 03:05:38;;;;;;;2.03;1.10;;;21.00;53.80;;;;;;5092625;28;20189;-70
2024/01/27 03:08:05;;;;;;;1.20;0.90;;;21.00;53.80;;;;;;5092608;28;20185;-70
2024/01/27 03:10:31;;;;;;;1.00;0.80;;;21.00;54.40;;;;;;5092706;28;20201;-70
2024/01/27 03:12:56;;;;;;;1.43;1.00;;;21.00;53.80;;;;;;5092480;28;20862;-71
2024/01/27 03:15:22;;;;;;;1.33;0.90;;;21.00;53.80;;;;;;5092524;28;20207;-70
2024/01/27 03:17:48;;;;;;;1.10;0.80;;;21.00;53.80;;;;;;5092385;28;20217;-70
2024/01/27 03:20:14;;;;;;;1.20;0.90;;;21.00;53.80;;;;;;5092582;28;20569;-70
2024/01/27 03:22:43;;;;;;;1.17;0.93;;;21.00;53.80;;;;;;5092346;28;20416;-70
2024/01/27 03:25:10;;;;;;;1.57;1.00;;;21.00;53.80;;;;;;5091945;28;20182;-71
2024/01/27 03:27:36;;;;;;;1.60;1.03;;;21.00;53.80;;;;;;5092174;28;20498;-71
2024/01/27 03:30:03;;;;;;;0.93;0.80;;;21.00;53.80;;;;;;5092083;28;20518;-70
2024/01/27 03:32:31;;;;;;;1.23;0.90;;;21.00;53.80;;;;;;5092092;28;20303;-71
2024/01/27 03:35:00;;;;;;;1.20;0.90;;;21.00;54.10;;;;;;5092344;28;20435;-72
2024/01/27 03:37:26;;;;;;;1.00;0.90;;;21.00;53.80;;;;;;5091990;28;20412;-72
2024/01/27 03:39:52;;;;;;;1.00;0.90;;;20.90;53.70;;;;;;5091909;28;20447;-71
2024/01/27 03:42:18;;;;;;;1.10;1.00;;;21.00;53.80;;;;;;5091418;28;20419;-71
2024/01/27 03:44:43;;;;;;;1.53;1.00;;;21.00;53.80;;;;;;5091925;28;20177;-71
2024/01/27 03:47:09;;;;;;;1.00;0.73;;;21.00;53.80;;;;;;5091829;28;20173;-70
2024/01/27 03:49:34;;;;;;;1.10;0.80;;;21.00;53.80;;;;;;5091763;28;20209;-71
2024/01/27 03:52:00;;;;;;;1.63;0.90;;;21.00;53.80;;;;;;5091767;28;20169;-70
2024/01/27 03:54:25;;;;;;;0.93;0.73;;;20.90;53.80;;;;;;5091622;28;20617;-70
2024/01/27 03:56:51;;;;;;;2.13;1.10;;;20.90;53.80;;;;;;5091864;28;20202;-70
2024/01/27 03:59:17;;;;;;;1.40;1.03;;;20.90;53.80;;;;;;5091540;28;20170;-70
2024/01/27 04:01:43;;;;;;;1.00;0.80;;;20.90;53.80;;;;;;5091849;28;20239;-70
2024/01/27 04:04:08;;;;;;;1.33;1.10;;;20.90;53.80;;;;;;5091481;28;20422;-71
2024/01/27 04:06:40;;;;;;;1.10;0.80;;;20.90;53.80;;;;;;5091475;28;20268;-71
2024/01/27 04:09:10;;;;;;;1.50;1.00;;;20.90;53.80;;;;;;5091625;28;20185;-71
2024/01/27 04:11:36;;;;;;;1.07;0.73;;;21.00;53.80;;;;;;5078760;28;20899;-71
2024/01/27 04:14:03;;;;;;;1.20;0.97;;;20.90;53.80;;;;;;5071064;28;20467;-70
2024/01/27 04:16:28;;;;;;;0.97;0.77;;;20.90;53.80;;;;;;5070890;28;20532;-70
2024/01/27 04:18:54;;;;;;;1.20;0.87;;;20.90;53.80;;;;;;5071065;28;20496;-71
2024/01/27 04:21:20;;;;;;;1.20;1.10;;;20.90;53.80;;;;;;5071216;28;20920;-71
2024/01/27 04:23:45;;;;;;;0.90;0.73;;;20.90;53.80;;;;;;5070990;28;20672;-71
2024/01/27 04:26:11;;;;;;;1.20;1.00;;;20.90;53.80;;;;;;5070859;28;20228;-71
2024/01/27 04:28:37;;;;;;;1.20;0.90;;;21.00;53.80;;;;;;5070861;28;20170;-71
2024/01/27 04:31:03;;;;;;;1.40;0.93;;;20.90;53.80;;;;;;5070684;28;20198;-71
2024/01/27 04:33:28;;;;;;;1.57;0.90;;;20.90;53.80;;;;;;5070786;28;20202;-71
2024/01/27 04:35:54;;;;;;;1.10;0.90;;;20.90;53.80;;;;;;5070713;28;20423;-71
2024/01/27 04:38:20;;;;;;;1.20;0.90;;;20.90;53.80;;;;;;5070670;28;20178;-71
2024/01/27 04:40:45;;;;;;;2.00;1.03;;;20.90;53.80;;;;;;5070560;28;20197;-71
2024/01/27 04:43:16;;;;;;;1.30;0.90;;;20.90;53.80;;;;;;5071012;28;20296;-70
2024/01/27 04:45:41;;;;;;;1.00;0.80;;;20.90;53.70;;;;;;5070480;28;20186;-71
2024/01/27 04:48:07;;;;;;;1.10;1.00;;;20.90;53.80;;;;;;5070409;28;20416;-71
2024/01/27 04:50:32;;;;;;;1.30;1.00;;;20.90;53.70;;;;;;5070329;28;20198;-69
2024/01/27 04:52:58;;;;;;;1.00;0.90;;;20.90;53.70;;;;;;5069620;28;20276;-72
2024/01/27 04:55:24;;;;;;;1.47;0.90;;;20.90;53.70;;;;;;5070310;28;20626;-70
2024/01/27 04:57:49;;;;;;;1.30;0.80;;;20.90;53.70;;;;;;5070268;28;20178;-71
2024/01/27 05:00:15;;;;;;;1.00;0.90;;;20.90;53.70;;;;;;5070228;28;20200;-71
2024/01/27 05:02:41;;;;;;;1.30;1.07;;;20.90;53.70;;;;;;5070340;28;20554;-71
2024/01/27 05:05:08;;;;;;;1.53;0.90;;;20.90;53.70;;;;;;5070196;28;20451;-71
2024/01/27 05:07:34;;;;;;;2.90;0.90;;;20.90;53.70;;;;;;5070468;28;20876;-71
2024/01/27 05:10:00;;;;;;;1.47;0.90;;;20.90;54.30;;;;;;5070071;28;20935;-71
2024/01/27 05:12:25;;;;;;;1.20;0.90;;;20.90;53.70;;;;;;5070159;28;20417;-71
2024/01/27 05:14:51;;;;;;;1.07;0.80;;;20.90;53.70;;;;;;5070168;28;20491;-71
2024/01/27 05:17:16;;;;;;;1.67;0.97;;;20.90;53.70;;;;;;5070015;28;20202;-71
2024/01/27 05:19:42;;;;;;;0.90;0.70;;;20.90;53.70;;;;;;5070030;28;20558;-71
2024/01/27 05:22:08;;;;;;;1.20;0.90;;;20.90;53.70;;;;;;5070129;28;20224;-71
2024/01/27 05:24:33;;;;;;;1.53;0.80;;;20.90;53.70;;;;;;5070104;28;20174;-70
2024/01/27 05:26:59;;;;;;;1.47;1.00;;;21.00;53.80;;;;;;5070016;28;20185;-71
2024/01/27 05:29:27;;;;;;;1.20;0.90;;;20.90;53.70;;;;;;5070153;28;20209;-71
2024/01/27 05:31:52;;;;;;;1.83;1.07;;;20.90;53.70;;;;;;5070214;28;20558;-71
2024/01/27 05:34:18;;;;;;;1.10;0.80;;;20.90;53.70;;;;;;5069826;28;20456;-71
2024/01/27 05:36:44;;;;;;;1.90;1.10;;;21.00;53.80;;;;;;5051931;28;20699;-71
2024/01/27 05:39:09;;;;;;;1.60;1.50;;;20.90;53.70;;;;;;5069893;28;20178;-72
2024/01/27 05:41:35;;;;;;;1.47;1.00;;;20.90;53.70;;;;;;5070035;28;20198;-71
2024/01/27 05:44:01;;;;;;;1.10;0.80;;;21.00;54.40;;;;;;5069899;28;20605;-71
2024/01/27 05:46:26;;;;;;;1.00;0.87;;;20.90;53.70;;;;;;5069840;28;20183;-71
2024/01/27 05:48:53;;;;;;;1.20;0.90;;;20.90;53.70;;;;;;5069779;28;20201;-71
2024/01/27 05:51:23;;;;;;;1.37;1.10;;;20.90;53.70;;;;;;5069650;28;20190;-72
2024/01/27 05:53:49;;;;;;;1.27;0.90;;;20.90;53.70;;;;;;5069618;28;20464;-72
2024/01/27 05:56:15;;;;;;;1.30;0.90;;;20.90;53.70;;;;;;5069673;28;20404;-72
2024/01/27 05:58:40;;;;;;;2.10;1.40;;;20.90;53.70;;;;;;5069665;28;20419;-71
2024/01/27 06:01:06;;;;;;;1.17;0.90;;;20.90;53.70;;;;;;5069827;28;20444;-71
2024/01/27 06:03:32;;;;;;;1.10;1.00;;;20.90;53.70;;;;;;5069906;28;20635;-71
2024/01/27 06:05:58;;;;;;;1.37;0.90;;;20.90;53.70;;;;;;5073129;28;20177;-71
2024/01/27 06:08:23;;;;;;;1.20;0.80;;;21.00;53.80;;;;;;5073635;28;20444;-71
2024/01/27 06:10:49;;;;;;;1.20;1.00;;;20.90;53.70;;;;;;5073540;28;20194;-71
2024/01/27 06:13:14;;;;;;;1.10;0.70;;;20.90;53.70;;;;;;5073431;28;20209;-71
2024/01/27 06:15:40;;;;;;;1.13;0.90;;;20.90;53.70;;;;;;5073330;28;20261;-72
2024/01/27 06:18:05;;;;;;;1.00;0.70;;;20.90;53.70;;;;;;5073394;28;20239;-72
2024/01/27 06:20:31;;;;;;;0.90;0.80;;;20.90;53.70;;;;;;5055268;28;20202;-71
2024/01/27 06:22:57;;;;;;;1.30;0.97;;;20.90;53.70;;;;;;5073194;28;20212;-71
2024/01/27 06:25:23;;;;;;;1.10;0.80;;;20.90;53.70;;;;;;5073291;28;20372;-71
2024/01/27 06:27:49;;;;;;;1.20;0.70;;;20.90;53.70;;;;;;5073037;28;20546;-71
2024/01/27 06:30:15;;;;;;;1.27;0.87;;;21.00;53.80;;;;;;5073362;28;20994;-71
2024/01/27 06:32:42;;;;;;;1.00;0.90;;;21.00;53.80;;;;;;5073015;28;20178;-71
2024/01/27 06:35:08;;;;;;;1.03;0.80;;;21.00;53.80;;;;;;5073084;28;20412;-71
2024/01/27 06:37:33;;;;;;;2.37;1.20;;;21.00;53.80;;;;;;5073078;28;20413;-71
2024/01/27 06:39:59;;;;;;;1.33;0.90;;;21.00;53.80;;;;;;5054932;28;20531;-71
2024/01/27 06:42:25;;;;;;;1.47;0.70;;;21.00;53.80;;;;;;5072950;28;20547;-71
2024/01/27 06:44:50;;;;;;;1.37;1.07;;;21.00;53.80;;;;;;5072893;28;20179;-72
2024/01/27 06:47:16;;;;;;;1.00;0.80;;;21.00;53.80;;;;;;5073038;28;20588;-71
2024/01/27 06:49:41;;;;;;;1.37;1.03;;;21.00;53.80;;;;;;5072737;28;20198;-71
2024/01/27 06:52:07;;;;;;;1.03;0.80;;;21.00;53.80;;;;;;5072705;28;20646;-71
2024/01/27 06:54:33;;;;;;;1.10;0.90;;;21.00;53.80;;;;;;5072595;28;20210;-71
2024/01/27 06:57:01;;;;;;;1.60;1.03;;;21.00;53.80;;;;;;5072900;28;20177;-72
2024/01/27 06:59:27;;;;;;;1.10;0.80;;;21.10;53.80;;;;;;5054473;28;20186;-70
2024/01/27 07:01:52;;;;;;;1.10;0.90;;;21.10;53.80;;;;;;5072769;28;20419;-71
2024/01/27 07:04:18;;;;;;;1.33;1.00;;;21.10;53.80;;;;;;5072573;28;20180;-71
2024/01/27 07:06:44;;;;;;;1.20;0.90;;;21.10;53.80;;;;;;5072417;28;20174;-71
2024/01/27 07:09:10;;;;;;;0.90;0.80;;;21.10;53.80;;;;;;5072449;28;20227;-71
2024/01/27 07:11:36;;;;;;;0.93;0.80;;;21.10;53.80;;;;;;5072229;28;20464;-71
2024/01/27 07:14:03;;;;;;;1.10;0.80;;;21.10;53.70;;;;;;5072274;28;20849;-71
2024/01/27 07:16:28;;;;;;;0.93;0.73;;;21.10;53.70;;;;;;5071419;28;20436;-71
2024/01/27 07:18:54;;;;;;;0.90;0.80;;;21.10;53.70;;;;;;5072221;28;20423;-72
2024/01/27 07:21:20;;;;;;;1.10;0.80;;;21.10;53.70;;;;;;5053963;28;20232;-71
2024/01/27 07:23:45;;;;;;;1.20;0.80;;;21.10;53.70;;;;;;5071987;28;20167;-72
2024/01/27 07:26:12;;;;;;;1.53;1.13;;;21.10;53.70;;;;;;5072181;28;20179;-70
2024/01/27 07:28:38;;;;;;;1.00;0.83;;;21.10;53.70;;;;;;5072034;28;20593;-71
2024/01/27 07:31:05;;;;;;;1.40;0.70;;;21.10;53.70;;;;;;5071914;28;20481;-72
2024/01/27 07:33:30;;;;;;;1.70;0.77;;;21.10;53.70;;;;;;5071890;28;20456;-71
2024/01/27 07:35:57;;;;;;;0.90;0.70;;;21.10;53.70;;;;;;5053866;28;21024;-71
2024/01/27 07:38:22;;;;;;;1.00;0.80;;;21.10;53.70;;;;;;5071841;28;20213;-71
2024/01/27 07:40:48;;;;;;;1.50;0.90;;;21.10;53.70;;;;;;5071702;28;20437;-72
2024/01/27 07:43:13;;;;;;;1.00;0.80;;;21.10;53.70;;;;;;5071748;28;20185;-72
2024/01/27 07:45:39;;;;;;;1.13;0.90;;;21.10;53.70;;;;;;5071677;28;20193;-71
2024/01/27 07:48:05;;;;;;;1.30;0.90;;;21.10;53.70;;;;;;5071952;28;20217;-71
2024/01/27 07:50:31;;;;;;;1.60;1.10;;;21.10;53.70;;;;;;5078409;28;20705;-71
2024/01/27 07:52:57;;;;;;;1.83;1.00;;;21.10;53.70;;;;;;5075661;28;20493;-71
2024/01/27 07:55:23;;;;;;;1.30;1.00;;;21.10;53.70;;;;;;5083245;28;20174;-71
2024/01/27 07:57:49;;;;;;;1.07;0.97;;;21.10;53.80;;;;;;5080855;28;20405;-72
2024/01/27 08:00:15;;;;;;;1.10;0.90;;;21.10;53.70;;;;;;5067390;28;20208;-71
2024/01/27 08:02:40;;;;;;;1.70;0.80;;;21.10;53.70;;;;;;5083009;28;20166;-71
2024/01/27 08:05:06;;;;;;;1.53;1.10;;;21.10;53.70;;;;;;5084371;28;20195;-72
2024/01/27 08:07:32;;;;;;;1.30;1.10;;;21.10;53.70;;;;;;5083191;28;20239;-71
2024/01/27 08:09:57;;;;;;;1.50;1.00;;;21.10;53.70;;;;;;5083189;28;20198;-70
2024/01/27 08:12:23;;;;;;;1.37;1.03;;;21.10;53.80;;;;;;5085028;28;20174;-71
2024/01/27 08:14:49;;;;;;;1.10;0.90;;;21.10;53.80;;;;;;5077064;28;20201;-72
2024/01/27 08:17:14;;;;;;;1.10;0.90;;;21.10;53.80;;;;;;5069662;28;20212;-71
2024/01/27 08:19:40;;;;;;;1.20;0.97;;;21.10;53.70;;;;;;5075648;28;20188;-71
2024/01/27 08:22:06;;;;;;;1.40;1.17;;;21.10;53.70;;;;;;5083121;28;20176;-71
2024/01/27 08:24:31;;;;;;;3.20;1.80;;;21.10;53.70;;;;;;5082603;28;20521;-70
2024/01/27 08:26:58;;;;;;;1.10;1.00;;;21.10;53.70;;;;;;5075783;28;20790;-71
2024/01/27 08:29:23;;;;;;;2.17;1.50;;;21.10;53.70;;;;;;5087483;28;20656;-70
2024/01/27 08:31:50;;;;;;;1.23;0.90;;;21.10;53.70;;;;;;5076556;28;20480;-71
2024/01/27 08:34:15;;;;;;;1.67;1.10;;;21.10;53.70;;;;;;5081462;28;20194;-69
2024/01/27 08:36:41;;;;;;;1.77;1.20;;;21.10;53.70;;;;;;5065633;28;20418;-71
2024/01/27 08:39:07;;;;;;;2.83;1.60;;;21.10;53.70;;;;;;5074156;28;20175;-71
2024/01/27 08:41:33;;;;;;;2.37;1.27;;;21.20;53.80;;;;;;5074029;28;20707;-71
2024/01/27 08:43:59;;;;;;;1.10;0.90;;;21.20;53.80;;;;;;5090337;28;20177;-70
2024/01/27 08:46:25;;;;;;;2.37;1.20;;;21.20;53.80;;;;;;5080178;28;20416;-71
2024/01/27 08:48:51;;;;;;;2.30;1.13;;;21.20;53.80;;;;;;5084899;28;20223;-71
2024/01/27 08:51:16;;;;;;;3.03;1.23;;;21.20;53.80;;;;;;5073829;28;20798;-71
2024/01/27 08:53:48;;;;;;;2.50;1.13;;;21.20;53.80;;;;;;5067659;28;20556;-71
2024/01/27 08:56:17;;;;;;;4.60;1.50;;;21.20;53.80;;;;;;5061579;28;20603;-70
2024/01/27 08:58:44;;;;;;;3.00;1.30;;;21.20;53.80;;;;;;5077237;28;20417;-72
2024/01/27 09:01:12;;;;;;;1.80;1.33;;;21.20;53.90;;;;;;5086888;28;20479;-71
2024/01/27 09:03:40;;;;;;;2.17;1.17;;;21.20;53.90;;;;;;5074491;28;20419;-71
2024/01/27 09:06:06;;;;;;;2.67;1.50;;;21.20;53.80;;;;;;5086534;28;20938;-71
2024/01/27 09:08:31;;;;;;;3.17;1.60;;;21.20;53.90;;;;;;5079930;28;20498;-70
2024/01/27 09:10:57;;;;;;;1.83;1.47;;;21.20;53.90;;;;;;5083666;28;20611;-72
2024/01/27 09:13:22;;;;;;;5.40;1.20;;;21.20;53.90;;;;;;5082023;28;20210;-71
2024/01/27 09:15:48;;;;;;;2.27;1.60;;;21.20;53.90;;;;;;5081039;28;20166;-71
2024/01/27 09:18:14;;;;;;;2.73;1.60;;;21.20;54.40;;;;;;5080903;28;20174;-68
2024/01/27 09:20:40;;;;;;;2.43;1.20;;;21.20;53.90;;;;;;5082886;28;20190;-71
2024/01/27 09:23:06;;;;;;;2.17;1.30;;;21.20;53.90;;;;;;5073524;28;20435;-71
2024/01/27 09:25:31;;;;;;;3.20;1.40;;;21.20;53.90;;;;;;5086636;28;20174;-70
2024/01/27 09:28:00;;;;;;;1.80;1.17;;;21.20;53.90;;;;;;5076818;28;20596;-71
2024/01/27 09:30:26;;;;;;;2.40;1.60;;;21.20;54.00;;;;;;5079391;28;20190;-73
2024/01/27 09:32:52;;;;;;;2.80;1.73;;;21.20;54.00;;;;;;5080646;28;20479;-71
2024/01/27 09:35:17;;;;;;;3.03;1.37;;;21.20;54.00;;;;;;5073252;28;20413;-70
2024/01/27 09:37:45;;;;;;;2.10;1.37;;;21.20;54.00;;;;;;5082121;28;20169;-71
2024/01/27 09:40:11;;;;;;;5.03;1.50;;;21.20;54.00;;;;;;5083497;28;20206;-70
2024/01/27 09:42:39;;;;;;;2.03;1.30;;;21.20;54.00;;;;;;5084431;28;20412;-71
2024/01/27 09:45:05;;;;;;;3.03;1.33;;;21.20;54.00;;;;;;5077255;28;20946;-70
2024/01/27 09:47:31;;;;;;;4.37;1.63;;;21.30;54.10;;;;;;5093191;28;20497;-71
2024/01/27 09:49:57;;;;;;;3.30;1.60;;;21.20;54.00;;;;;;5083078;28;20518;-71
2024/01/27 09:52:22;;;;;;;2.83;1.60;;;21.30;54.10;;;;;;5086368;28;20166;-70
2024/01/27 09:54:48;;;;;;;2.77;1.30;;;21.30;54.10;;;;;;5090477;28;20459;-71
2024/01/27 09:57:14;;;;;;;3.50;1.53;;;21.30;54.10;;;;;;5079761;28;20556;-71
2024/01/27 09:59:45;;;;;;;4.53;1.67;;;21.30;54.10;;;;;;5092070;28;20265;-71
2024/01/27 10:02:12;;;;;;;2.80;1.40;;;21.30;54.10;;;;;;5085299;28;20415;-70
2024/01/27 10:04:42;;;;;;;3.73;1.70;;;21.30;54.10;;;;;;5083968;28;20564;-72
2024/01/27 10:07:08;;;;;;;2.67;1.33;;;21.30;54.10;;;;;;5092950;28;20412;-71
2024/01/27 10:09:33;;;;;;;2.70;1.43;;;21.30;54.10;;;;;;5082818;28;20969;-71
2024/01/27 10:12:01;;;;;;;3.73;1.50;;;21.30;54.10;;;;;;5089908;28;20181;-71
2024/01/27 10:14:41;;;;;;;2.47;1.53;;;21.30;54.10;;;;;;5087824;28;20254;-71
2024/01/27 10:17:10;;;;;;;2.53;1.40;;;21.30;54.20;;;;;;5085658;28;20945;-71
2024/01/27 10:19:36;;;;;;;4.93;1.63;;;21.30;54.20;;;;;;5092623;28;20430;-72
2024/01/27 10:22:04;;;;;;;3.20;1.33;;;21.30;54.10;;;;;;5079484;28;20411;-72
2024/01/27 10:24:32;;;;;;;3.20;1.50;;;21.30;54.10;;;;;;5088979;28;20189;-71
2024/01/27 10:27:05;;;;;;;4.10;1.80;;;21.30;54.10;;;;;;5080903;28;20523;-71
2024/01/27 10:29:31;;;;;;;2.90;1.57;;;21.30;54.70;;;;;;5087441;28;20404;-71
2024/01/27 10:32:07;;;;;;;2.80;1.47;;;21.30;54.20;;;;;;5087446;28;20469;-71
2024/01/27 10:34:33;;;;;;;3.43;1.60;;;21.30;54.20;;;;;;5089828;28;20289;-70
2024/01/27 10:36:59;;;;;;;3.27;1.40;;;21.30;54.20;;;;;;5079353;28;20503;-72
2024/01/27 10:39:24;;;;;;;3.57;1.57;;;21.30;54.20;;;;;;5091890;28;20210;-71
2024/01/27 10:41:51;;;;;;;3.20;1.50;;;21.30;54.20;;;;;;5076007;28;20185;-71
2024/01/27 10:44:18;;;;;;;3.13;1.67;;;21.30;54.70;;;;;;5058326;28;20202;-72
2024/01/27 10:46:48;;;;;;;4.40;1.67;;;21.30;54.20;;;;;;5076285;28;20423;-70
2024/01/27 10:49:16;;;;;;;2.73;1.90;;;21.30;54.20;;;;;;5076104;28;20401;-71
2024/01/27 10:52:03;;;;;;;2.30;1.60;;;21.20;54.10;;;;;;5054500;28;20791;-71
2024/01/27 10:54:32;;;;;;;2.33;1.60;;;21.30;54.20;;;;;;5072890;28;20470;-71
2024/01/27 10:56:58;;;;;;;2.23;1.20;;;21.30;54.10;;;;;;5072758;28;20440;-71
2024/01/27 10:59:27;;;;;;;2.20;1.37;;;21.30;54.00;;;;;;5054886;28;20427;-71
2024/01/27 11:01:54;;;;;;;1.80;1.23;;;21.30;54.00;;;;;;5072729;28;20408;-71
2024/01/27 11:04:21;;;;;;;3.13;1.20;;;21.30;54.00;;;;;;5072543;28;20451;-70
2024/01/27 11:06:49;;;;;;;2.40;1.47;;;21.30;54.00;;;;;;5072640;28;20775;-71
2024/01/27 11:09:17;;;;;;;2.53;1.00;;;21.30;53.90;;;;;;5072459;28;20413;-69
2024/01/27 11:11:44;;;;;;;3.00;1.60;;;21.30;53.90;;;;;;5072738;28;20493;-71
2024/01/27 11:14:11;;;;;;;2.80;1.43;;;21.30;54.00;;;;;;5074324;28;21012;-69
2024/01/27 11:16:44;;;;;;;2.90;1.83;;;21.30;53.90;;;;;;5084386;28;20464;-71
2024/01/27 11:19:12;;;;;;;3.20;1.97;;;21.30;53.90;;;;;;5085169;28;20408;-71
2024/01/27 11:21:37;;;;;;;2.60;1.37;;;21.30;53.90;;;;;;5081125;28;20477;-71
2024/01/27 11:24:16;;;;;;;4.37;1.67;;;21.40;54.00;;;;;;5089691;28;20419;-72
2024/01/27 11:26:42;;;;;;;4.97;1.97;;;21.40;54.00;;;;;;5092411;28;20176;-71
2024/01/27 11:29:13;;;;;;;3.13;1.80;;;21.40;54.00;;;;;;5092335;28;20415;-70
2024/01/27 11:31:40;;;;;;;2.90;1.43;;;21.40;54.00;;;;;;5092310;28;20399;-71
2024/01/27 11:34:16;;;;;;;4.77;1.70;;;21.40;54.00;;;;;;5092256;28;20447;-69
2024/01/27 11:36:42;;;;;;;3.70;1.67;;;21.40;54.00;;;;;;5092221;28;20726;-71
2024/01/27 11:39:26;;;;;;;6.93;2.10;;;21.40;54.00;;;;;;5074063;28;20938;-69
2024/01/27 11:41:52;;;;;;;2.40;1.70;;;21.40;54.00;;;;;;5092249;28;20407;-70
2024/01/27 11:44:18;;;;;;;3.17;1.60;;;21.40;54.00;;;;;;5092146;28;20415;-72
2024/01/27 11:46:45;;;;;;;2.80;1.33;;;21.40;54.00;;;;;;5091940;28;20436;-72
2024/01/27 11:49:20;;;;;;;4.63;1.63;;;21.40;54.00;;;;;;5091924;28;20182;-71
2024/01/27 11:51:46;;;;;;;2.10;1.50;;;21.40;54.00;;;;;;5092258;28;20471;-70
2024/01/27 11:54:13;;;;;;;2.50;1.53;;;21.40;54.00;;;;;;5091697;28;20459;-70
2024/01/27 11:56:38;;;;;;;3.23;1.70;;;21.40;54.00;;;;;;5091873;28;20209;-71
2024/01/27 11:59:04;;;;;;;3.00;1.70;;;21.40;53.90;;;;;;5091896;28;20831;-69
2024/01/27 12:01:30;;;;;;;2.80;1.93;;;21.50;54.00;;;;;;5067032;28;20238;-70
2024/01/27 12:03:56;;;;;;;2.70;1.63;;;21.50;54.10;;;;;;5087112;28;20246;-71
2024/01/27 12:06:22;;;;;;;3.83;1.57;;;21.50;54.10;;;;;;5083621;28;20228;-71
2024/01/27 12:08:48;;;;;;;2.63;1.63;;;21.40;54.10;;;;;;5090116;28;20235;-72
2024/01/27 12:11:14;;;;;;;2.90;1.60;;;21.40;54.20;;;;;;5076770;28;20451;-71
2024/01/27 12:13:40;;;;;;;4.50;2.20;;;21.40;54.20;;;;;;5083657;28;20458;-71
2024/01/27 12:16:07;;;;;;;2.00;1.50;;;21.40;54.20;;;;;;5075490;28;20272;-70
2024/01/27 12:18:32;;;;;;;4.00;1.80;;;21.40;54.30;;;;;;5083055;28;20420;-71
2024/01/27 12:20:58;;;;;;;2.17;1.60;;;21.50;54.30;;;;;;5089739;28;20431;-71
2024/01/27 12:23:24;;;;;;;3.93;1.47;;;21.40;54.30;;;;;;5075859;28;20294;-72
2024/01/27 12:25:54;;;;;;;3.00;1.60;;;21.50;54.40;;;;;;5087529;28;20178;-71
2024/01/27 12:28:20;;;;;;;5.23;1.80;;;21.40;54.30;;;;;;5077163;28;20711;-71
2024/01/27 12:30:46;;;;;;;3.20;2.00;;;21.40;54.30;;;;;;5080846;28;20520;-69
2024/01/27 12:33:13;;;;;;;3.37;2.20;;;21.40;54.30;;;;;;5084417;28;20466;-71
2024/01/27 12:35:38;;;;;;;3.07;1.80;;;21.40;54.30;;;;;;5074362;28;20417;-70
2024/01/27 12:38:06;;;;;;;2.43;2.00;;;21.40;54.30;;;;;;5086677;28;20458;-71
2024/01/27 12:40:31;;;;;;;2.77;1.30;;;21.40;54.30;;;;;;5078578;28;20189;-71
2024/01/27 12:42:57;;;;;;;4.20;1.97;;;21.40;54.40;;;;;;5079173;28;21020;-69